This is the latest recevied weather packets stored in our database for station/object S51FO-6. If no packets are shown the sender has not sent any weather packets the latest 10 day(s).
| Time | Temp. | Humidity | Pressure | Rain* | Wind** | Luminosity | Snow |
|---|---|---|---|---|---|---|---|
| 1777573800 | 2.78° C | 43% | - | 0 mm | - | - | - |
| 1777562386 | 7.22° C | 30% | - | 0 mm | - | - | - |
| 1777555186 | 7.22° C | 31% | - | 0 mm | - | - | - |
| 1777552186 | 6.67° C | 30% | - | 0 mm | - | - | - |
| 1777549789 | 6.11° C | 33% | - | 0 mm | - | - | - |
| 1777547987 | 5.56° C | 37% | - | 0 mm | - | - | - |
| 1777545587 | 5° C | 44% | - | 0 mm | - | - | - |
| 1777544986 | 4.44° C | 40% | - | 0 mm | - | - | - |
| 1777543793 | 4.44° C | 41% | - | 0 mm | - | - | - |
| 1777543186 | 4.44° C | 39% | - | 0 mm | - | - | - |
| 1777541986 | 4.44° C | 40% | - | 0 mm | - | - | - |
| 1777541386 | 3.33° C | 38% | - | 0 mm | - | - | - |
| 1777540190 | 2.78° C | 39% | - | 0 mm | - | - | - |
| 1777539587 | 2.78° C | 39% | - | 0 mm | - | - | - |
| 1777537786 | 2.22° C | 44% | - | 0 mm | - | - | - |
| 1777537186 | 2.22° C | 43% | - | 0 mm | - | - | - |
| 1777535994 | 2.22° C | 47% | - | 0 mm | - | - | - |
| 1777534790 | 1.67° C | 47% | - | 0 mm | - | - | - |
| 1777534186 | 1.11° C | 49% | - | 0 mm | - | - | - |
| 1777533592 | 1.11° C | 46% | - | 0 mm | - | - | - |
| 1777532986 | 1.11° C | 47% | - | 0 mm | - | - | - |
| 1777532386 | 1.11° C | 47% | - | 0 mm | - | - | - |
| 1777531786 | 0.56° C | 47% | - | 0 mm | - | - | - |
| 1777531186 | 0° C | 51% | - | 0 mm | - | - | - |
| 1777529389 | -1.11° C | 54% | - | 0 mm | - | - | - |
* Rain latest hour (hover to see other rain measurements)
** Current wind speed in m/s (hover to see current wind gust speed)